sensor_id;sensor_type;location;lat;lon;timestamp;P1;durP1;ratioP1;P2;durP2;ratioP2
6852;SDS011;3465;42.144;24.722;2023-11-19T00:00:29;1.70;;;1.60;;
6852;SDS011;3465;42.144;24.722;2023-11-19T00:02:54;1.70;;;1.43;;
6852;SDS011;3465;42.144;24.722;2023-11-19T00:05:20;2.33;;;1.60;;
6852;SDS011;3465;42.144;24.722;2023-11-19T00:07:45;2.00;;;1.80;;
6852;SDS011;3465;42.144;24.722;2023-11-19T00:10:12;2.60;;;1.60;;
6852;SDS011;3465;42.144;24.722;2023-11-19T00:12:40;2.73;;;1.63;;
6852;SDS011;3465;42.144;24.722;2023-11-19T00:15:07;2.23;;;1.70;;
6852;SDS011;3465;42.144;24.722;2023-11-19T00:17:41;3.30;;;1.70;;
6852;SDS011;3465;42.144;24.722;2023-11-19T00:20:10;2.50;;;1.87;;
6852;SDS011;3465;42.144;24.722;2023-11-19T00:22:36;3.30;;;1.83;;
6852;SDS011;3465;42.144;24.722;2023-11-19T00:25:01;2.33;;;1.60;;
6852;SDS011;3465;42.144;24.722;2023-11-19T00:27:28;3.03;;;1.60;;
6852;SDS011;3465;42.144;24.722;2023-11-19T00:29:54;3.37;;;1.70;;
6852;SDS011;3465;42.144;24.722;2023-11-19T00:32:19;3.83;;;1.77;;
6852;SDS011;3465;42.144;24.722;2023-11-19T00:34:45;2.47;;;1.70;;
6852;SDS011;3465;42.144;24.722;2023-11-19T00:37:12;1.83;;;1.60;;
6852;SDS011;3465;42.144;24.722;2023-11-19T00:39:37;2.33;;;1.60;;
6852;SDS011;3465;42.144;24.722;2023-11-19T00:42:03;1.70;;;1.60;;
6852;SDS011;3465;42.144;24.722;2023-11-19T00:44:29;2.20;;;1.60;;
6852;SDS011;3465;42.144;24.722;2023-11-19T00:46:54;4.77;;;1.70;;
6852;SDS011;3465;42.144;24.722;2023-11-19T00:49:19;4.03;;;1.70;;
6852;SDS011;3465;42.144;24.722;2023-11-19T00:51:45;1.80;;;1.50;;
6852;SDS011;3465;42.144;24.722;2023-11-19T00:54:10;2.63;;;1.73;;
6852;SDS011;3465;42.144;24.722;2023-11-19T00:56:36;2.73;;;1.70;;
6852;SDS011;3465;42.144;24.722;2023-11-19T00:59:02;1.77;;;1.50;;
6852;SDS011;3465;42.144;24.722;2023-11-19T01:01:28;1.97;;;1.50;;
6852;SDS011;3465;42.144;24.722;2023-11-19T01:03:55;8.40;;;1.83;;
6852;SDS011;3465;42.144;24.722;2023-11-19T01:06:31;3.60;;;1.67;;
6852;SDS011;3465;42.144;24.722;2023-11-19T01:08:57;1.73;;;1.60;;
6852;SDS011;3465;42.144;24.722;2023-11-19T01:11:24;1.70;;;1.60;;
6852;SDS011;3465;42.144;24.722;2023-11-19T01:13:50;1.80;;;1.70;;
6852;SDS011;3465;42.144;24.722;2023-11-19T01:16:17;1.63;;;1.40;;
6852;SDS011;3465;42.144;24.722;2023-11-19T01:18:43;2.90;;;1.63;;
6852;SDS011;3465;42.144;24.722;2023-11-19T01:21:09;3.40;;;1.80;;
6852;SDS011;3465;42.144;24.722;2023-11-19T01:23:35;1.57;;;1.43;;
6852;SDS011;3465;42.144;24.722;2023-11-19T01:26:02;1.70;;;1.50;;
6852;SDS011;3465;42.144;24.722;2023-11-19T01:28:27;2.67;;;1.70;;
6852;SDS011;3465;42.144;24.722;2023-11-19T01:30:53;1.73;;;1.50;;
6852;SDS011;3465;42.144;24.722;2023-11-19T01:33:18;1.93;;;1.60;;
6852;SDS011;3465;42.144;24.722;2023-11-19T01:35:44;2.20;;;1.70;;
6852;SDS011;3465;42.144;24.722;2023-11-19T01:38:09;2.57;;;1.70;;
6852;SDS011;3465;42.144;24.722;2023-11-19T01:40:35;1.77;;;1.67;;
6852;SDS011;3465;42.144;24.722;2023-11-19T01:43:01;1.70;;;1.53;;
6852;SDS011;3465;42.144;24.722;2023-11-19T01:45:28;2.07;;;1.70;;
6852;SDS011;3465;42.144;24.722;2023-11-19T01:47:54;2.33;;;1.90;;
6852;SDS011;3465;42.144;24.722;2023-11-19T01:50:21;1.53;;;1.43;;
6852;SDS011;3465;42.144;24.722;2023-11-19T01:52:47;4.23;;;1.90;;
6852;SDS011;3465;42.144;24.722;2023-11-19T01:55:13;2.60;;;1.80;;
6852;SDS011;3465;42.144;24.722;2023-11-19T01:57:39;3.60;;;1.60;;
6852;SDS011;3465;42.144;24.722;2023-11-19T02:00:06;1.93;;;1.60;;
6852;SDS011;3465;42.144;24.722;2023-11-19T02:02:36;3.47;;;2.00;;
6852;SDS011;3465;42.144;24.722;2023-11-19T02:05:02;2.07;;;1.80;;
6852;SDS011;3465;42.144;24.722;2023-11-19T02:07:28;2.03;;;1.83;;
6852;SDS011;3465;42.144;24.722;2023-11-19T02:09:54;3.20;;;1.70;;
6852;SDS011;3465;42.144;24.722;2023-11-19T02:12:19;2.57;;;1.90;;
6852;SDS011;3465;42.144;24.722;2023-11-19T02:14:45;3.27;;;1.80;;
6852;SDS011;3465;42.144;24.722;2023-11-19T02:19:52;1.77;;;1.60;;
6852;SDS011;3465;42.144;24.722;2023-11-19T02:22:18;1.93;;;1.73;;
6852;SDS011;3465;42.144;24.722;2023-11-19T02:24:44;2.97;;;2.10;;
6852;SDS011;3465;42.144;24.722;2023-11-19T02:27:15;1.97;;;1.77;;
6852;SDS011;3465;42.144;24.722;2023-11-19T02:29:51;2.13;;;1.90;;
6852;SDS011;3465;42.144;24.722;2023-11-19T02:32:16;1.77;;;1.67;;
6852;SDS011;3465;42.144;24.722;2023-11-19T02:34:42;2.53;;;2.00;;
6852;SDS011;3465;42.144;24.722;2023-11-19T02:37:07;2.33;;;1.90;;
6852;SDS011;3465;42.144;24.722;2023-11-19T02:39:33;2.43;;;1.87;;
6852;SDS011;3465;42.144;24.722;2023-11-19T02:41:58;2.13;;;1.93;;
6852;SDS011;3465;42.144;24.722;2023-11-19T02:44:25;2.27;;;1.97;;
6852;SDS011;3465;42.144;24.722;2023-11-19T02:46:53;2.20;;;1.67;;
6852;SDS011;3465;42.144;24.722;2023-11-19T02:49:18;2.10;;;1.90;;
6852;SDS011;3465;42.144;24.722;2023-11-19T02:51:44;2.90;;;1.90;;
6852;SDS011;3465;42.144;24.722;2023-11-19T02:54:09;2.37;;;2.10;;
6852;SDS011;3465;42.144;24.722;2023-11-19T02:56:35;2.43;;;2.13;;
6852;SDS011;3465;42.144;24.722;2023-11-19T02:59:02;3.33;;;2.00;;
6852;SDS011;3465;42.144;24.722;2023-11-19T03:01:40;2.10;;;1.90;;
6852;SDS011;3465;42.144;24.722;2023-11-19T03:04:09;1.97;;;1.80;;
6852;SDS011;3465;42.144;24.722;2023-11-19T03:06:37;2.27;;;2.00;;
6852;SDS011;3465;42.144;24.722;2023-11-19T03:09:03;2.63;;;2.00;;
6852;SDS011;3465;42.144;24.722;2023-11-19T03:11:33;2.20;;;2.00;;
6852;SDS011;3465;42.144;24.722;2023-11-19T03:13:58;2.50;;;2.30;;
6852;SDS011;3465;42.144;24.722;2023-11-19T03:16:24;2.10;;;1.90;;
6852;SDS011;3465;42.144;24.722;2023-11-19T03:18:49;3.57;;;2.07;;
6852;SDS011;3465;42.144;24.722;2023-11-19T03:21:15;2.87;;;2.40;;
6852;SDS011;3465;42.144;24.722;2023-11-19T03:23:40;2.90;;;2.10;;
6852;SDS011;3465;42.144;24.722;2023-11-19T03:26:06;2.37;;;2.10;;
6852;SDS011;3465;42.144;24.722;2023-11-19T03:28:33;2.40;;;2.13;;
6852;SDS011;3465;42.144;24.722;2023-11-19T03:30:58;4.13;;;2.33;;
6852;SDS011;3465;42.144;24.722;2023-11-19T03:33:23;2.67;;;2.17;;
6852;SDS011;3465;42.144;24.722;2023-11-19T03:35:50;2.97;;;2.30;;
6852;SDS011;3465;42.144;24.722;2023-11-19T03:38:17;2.40;;;2.20;;
6852;SDS011;3465;42.144;24.722;2023-11-19T03:40:42;2.50;;;2.17;;
6852;SDS011;3465;42.144;24.722;2023-11-19T03:43:07;2.90;;;2.40;;
6852;SDS011;3465;42.144;24.722;2023-11-19T03:45:34;3.37;;;2.20;;
6852;SDS011;3465;42.144;24.722;2023-11-19T03:48:01;3.87;;;2.40;;
6852;SDS011;3465;42.144;24.722;2023-11-19T03:50:26;2.50;;;2.30;;
6852;SDS011;3465;42.144;24.722;2023-11-19T03:52:52;4.03;;;2.20;;
6852;SDS011;3465;42.144;24.722;2023-11-19T03:55:17;3.93;;;2.67;;
6852;SDS011;3465;42.144;24.722;2023-11-19T03:57:43;3.07;;;2.23;;
6852;SDS011;3465;42.144;24.722;2023-11-19T04:00:08;4.40;;;2.33;;
6852;SDS011;3465;42.144;24.722;2023-11-19T04:02:36;2.43;;;2.07;;
6852;SDS011;3465;42.144;24.722;2023-11-19T04:05:02;2.30;;;2.10;;
6852;SDS011;3465;42.144;24.722;2023-11-19T04:07:29;3.23;;;2.77;;
6852;SDS011;3465;42.144;24.722;2023-11-19T04:09:54;2.90;;;2.40;;
6852;SDS011;3465;42.144;24.722;2023-11-19T04:12:19;2.40;;;2.00;;
6852;SDS011;3465;42.144;24.722;2023-11-19T04:14:45;9.53;;;2.90;;
6852;SDS011;3465;42.144;24.722;2023-11-19T04:17:10;2.47;;;2.10;;
6852;SDS011;3465;42.144;24.722;2023-11-19T04:19:36;3.33;;;2.30;;
6852;SDS011;3465;42.144;24.722;2023-11-19T04:22:01;5.20;;;2.10;;
6852;SDS011;3465;42.144;24.722;2023-11-19T04:24:27;2.30;;;2.10;;
6852;SDS011;3465;42.144;24.722;2023-11-19T04:26:53;2.70;;;2.10;;
6852;SDS011;3465;42.144;24.722;2023-11-19T04:29:18;2.67;;;2.23;;
6852;SDS011;3465;42.144;24.722;2023-11-19T04:31:44;2.33;;;2.10;;
6852;SDS011;3465;42.144;24.722;2023-11-19T04:34:11;2.90;;;2.10;;
6852;SDS011;3465;42.144;24.722;2023-11-19T04:36:36;2.73;;;2.30;;
6852;SDS011;3465;42.144;24.722;2023-11-19T04:39:02;2.67;;;2.20;;
6852;SDS011;3465;42.144;24.722;2023-11-19T04:41:41;2.70;;;2.40;;
6852;SDS011;3465;42.144;24.722;2023-11-19T04:44:11;2.57;;;2.20;;
6852;SDS011;3465;42.144;24.722;2023-11-19T04:46:36;2.83;;;2.57;;
6852;SDS011;3465;42.144;24.722;2023-11-19T04:49:02;2.43;;;2.20;;
6852;SDS011;3465;42.144;24.722;2023-11-19T04:51:27;2.40;;;2.20;;
6852;SDS011;3465;42.144;24.722;2023-11-19T04:53:53;2.60;;;2.10;;
6852;SDS011;3465;42.144;24.722;2023-11-19T04:56:18;4.40;;;2.50;;
6852;SDS011;3465;42.144;24.722;2023-11-19T04:58:44;2.13;;;1.93;;
6852;SDS011;3465;42.144;24.722;2023-11-19T05:01:13;3.40;;;2.20;;
6852;SDS011;3465;42.144;24.722;2023-11-19T05:03:42;2.30;;;2.10;;
6852;SDS011;3465;42.144;24.722;2023-11-19T05:06:08;2.53;;;2.30;;
6852;SDS011;3465;42.144;24.722;2023-11-19T05:08:33;2.50;;;2.20;;
6852;SDS011;3465;42.144;24.722;2023-11-19T05:11:00;2.43;;;2.20;;
6852;SDS011;3465;42.144;24.722;2023-11-19T05:13:25;5.73;;;2.10;;
6852;SDS011;3465;42.144;24.722;2023-11-19T05:15:51;2.87;;;2.23;;
6852;SDS011;3465;42.144;24.722;2023-11-19T05:18:17;2.97;;;2.23;;
6852;SDS011;3465;42.144;24.722;2023-11-19T05:20:42;3.47;;;2.27;;
6852;SDS011;3465;42.144;24.722;2023-11-19T05:23:08;2.80;;;2.37;;
6852;SDS011;3465;42.144;24.722;2023-11-19T05:25:33;2.57;;;2.27;;
6852;SDS011;3465;42.144;24.722;2023-11-19T05:27:59;2.87;;;2.40;;
6852;SDS011;3465;42.144;24.722;2023-11-19T05:30:24;3.10;;;2.60;;
6852;SDS011;3465;42.144;24.722;2023-11-19T05:32:50;2.80;;;2.40;;
6852;SDS011;3465;42.144;24.722;2023-11-19T05:35:15;3.13;;;2.40;;
6852;SDS011;3465;42.144;24.722;2023-11-19T05:37:41;3.00;;;2.50;;
6852;SDS011;3465;42.144;24.722;2023-11-19T05:40:06;4.30;;;2.83;;
6852;SDS011;3465;42.144;24.722;2023-11-19T05:42:39;3.90;;;2.63;;
6852;SDS011;3465;42.144;24.722;2023-11-19T05:45:05;3.80;;;2.70;;
6852;SDS011;3465;42.144;24.722;2023-11-19T05:47:32;3.93;;;2.70;;
6852;SDS011;3465;42.144;24.722;2023-11-19T05:49:58;3.00;;;2.50;;
6852;SDS011;3465;42.144;24.722;2023-11-19T05:52:24;8.93;;;2.50;;
6852;SDS011;3465;42.144;24.722;2023-11-19T05:54:49;2.87;;;2.50;;
6852;SDS011;3465;42.144;24.722;2023-11-19T05:57:17;2.57;;;2.30;;
6852;SDS011;3465;42.144;24.722;2023-11-19T05:59:50;3.27;;;2.43;;
6852;SDS011;3465;42.144;24.722;2023-11-19T06:02:15;8.30;;;2.70;;
6852;SDS011;3465;42.144;24.722;2023-11-19T06:04:41;3.37;;;2.40;;
6852;SDS011;3465;42.144;24.722;2023-11-19T06:07:09;3.77;;;2.37;;
6852;SDS011;3465;42.144;24.722;2023-11-19T06:09:34;2.93;;;2.33;;
6852;SDS011;3465;42.144;24.722;2023-11-19T06:12:00;2.60;;;2.27;;
6852;SDS011;3465;42.144;24.722;2023-11-19T06:14:27;2.87;;;2.33;;
6852;SDS011;3465;42.144;24.722;2023-11-19T06:16:52;2.73;;;2.20;;
6852;SDS011;3465;42.144;24.722;2023-11-19T06:19:18;3.43;;;2.60;;
6852;SDS011;3465;42.144;24.722;2023-11-19T06:21:43;3.00;;;2.40;;
6852;SDS011;3465;42.144;24.722;2023-11-19T06:24:09;3.00;;;2.50;;
6852;SDS011;3465;42.144;24.722;2023-11-19T06:26:34;4.27;;;2.50;;
6852;SDS011;3465;42.144;24.722;2023-11-19T06:29:00;2.87;;;2.23;;
6852;SDS011;3465;42.144;24.722;2023-11-19T06:31:25;7.07;;;2.53;;
6852;SDS011;3465;42.144;24.722;2023-11-19T06:33:51;4.03;;;2.53;;
6852;SDS011;3465;42.144;24.722;2023-11-19T06:36:16;2.53;;;2.23;;
6852;SDS011;3465;42.144;24.722;2023-11-19T06:38:42;4.00;;;2.50;;
6852;SDS011;3465;42.144;24.722;2023-11-19T06:41:08;2.97;;;2.20;;
6852;SDS011;3465;42.144;24.722;2023-11-19T06:43:37;3.10;;;2.50;;
6852;SDS011;3465;42.144;24.722;2023-11-19T06:46:02;3.17;;;2.30;;
6852;SDS011;3465;42.144;24.722;2023-11-19T06:48:31;2.83;;;2.30;;
6852;SDS011;3465;42.144;24.722;2023-11-19T06:50:59;5.97;;;2.33;;
6852;SDS011;3465;42.144;24.722;2023-11-19T06:53:25;2.53;;;2.10;;
6852;SDS011;3465;42.144;24.722;2023-11-19T06:55:53;2.70;;;2.30;;
6852;SDS011;3465;42.144;24.722;2023-11-19T06:58:18;2.43;;;2.17;;
6852;SDS011;3465;42.144;24.722;2023-11-19T07:00:44;4.07;;;2.30;;
6852;SDS011;3465;42.144;24.722;2023-11-19T07:03:10;2.63;;;2.30;;
6852;SDS011;3465;42.144;24.722;2023-11-19T07:05:36;2.80;;;2.20;;
6852;SDS011;3465;42.144;24.722;2023-11-19T07:08:03;3.27;;;2.10;;
6852;SDS011;3465;42.144;24.722;2023-11-19T07:10:32;2.67;;;2.33;;
6852;SDS011;3465;42.144;24.722;2023-11-19T07:12:58;3.93;;;2.60;;
6852;SDS011;3465;42.144;24.722;2023-11-19T07:15:24;3.20;;;2.00;;
6852;SDS011;3465;42.144;24.722;2023-11-19T07:17:49;2.57;;;2.00;;
6852;SDS011;3465;42.144;24.722;2023-11-19T07:20:15;2.27;;;2.00;;
6852;SDS011;3465;42.144;24.722;2023-11-19T07:22:43;2.57;;;2.00;;
6852;SDS011;3465;42.144;24.722;2023-11-19T07:25:11;2.47;;;2.17;;
6852;SDS011;3465;42.144;24.722;2023-11-19T07:27:39;2.47;;;2.00;;
6852;SDS011;3465;42.144;24.722;2023-11-19T07:30:05;3.27;;;2.13;;
6852;SDS011;3465;42.144;24.722;2023-11-19T07:32:32;2.10;;;1.67;;
6852;SDS011;3465;42.144;24.722;2023-11-19T07:34:58;2.10;;;1.90;;
6852;SDS011;3465;42.144;24.722;2023-11-19T07:37:24;2.73;;;2.13;;
6852;SDS011;3465;42.144;24.722;2023-11-19T07:39:50;2.60;;;2.10;;
6852;SDS011;3465;42.144;24.722;2023-11-19T07:42:15;2.20;;;2.00;;
6852;SDS011;3465;42.144;24.722;2023-11-19T07:44:41;2.93;;;2.00;;
6852;SDS011;3465;42.144;24.722;2023-11-19T07:47:06;2.40;;;1.90;;
6852;SDS011;3465;42.144;24.722;2023-11-19T07:49:32;4.30;;;1.90;;
6852;SDS011;3465;42.144;24.722;2023-11-19T07:51:58;2.63;;;2.00;;
6852;SDS011;3465;42.144;24.722;2023-11-19T07:54:24;3.50;;;1.90;;
6852;SDS011;3465;42.144;24.722;2023-11-19T07:56:50;2.43;;;1.90;;
6852;SDS011;3465;42.144;24.722;2023-11-19T07:59:15;4.60;;;2.00;;
6852;SDS011;3465;42.144;24.722;2023-11-19T08:01:41;2.23;;;2.00;;
6852;SDS011;3465;42.144;24.722;2023-11-19T08:04:06;2.37;;;2.10;;
6852;SDS011;3465;42.144;24.722;2023-11-19T08:06:32;3.07;;;1.93;;
6852;SDS011;3465;42.144;24.722;2023-11-19T08:08:57;9.83;;;1.93;;
6852;SDS011;3465;42.144;24.722;2023-11-19T08:11:23;2.50;;;1.87;;
6852;SDS011;3465;42.144;24.722;2023-11-19T08:13:49;2.60;;;2.03;;
6852;SDS011;3465;42.144;24.722;2023-11-19T08:16:14;2.20;;;2.00;;
6852;SDS011;3465;42.144;24.722;2023-11-19T08:18:41;6.47;;;2.17;;
6852;SDS011;3465;42.144;24.722;2023-11-19T08:21:08;2.53;;;2.07;;
6852;SDS011;3465;42.144;24.722;2023-11-19T08:23:33;2.70;;;2.10;;
6852;SDS011;3465;42.144;24.722;2023-11-19T08:25:59;2.63;;;2.17;;
6852;SDS011;3465;42.144;24.722;2023-11-19T08:28:25;2.60;;;2.20;;
6852;SDS011;3465;42.144;24.722;2023-11-19T08:30:50;2.63;;;2.10;;
6852;SDS011;3465;42.144;24.722;2023-11-19T08:33:16;3.53;;;2.23;;
6852;SDS011;3465;42.144;24.722;2023-11-19T08:35:43;2.73;;;2.20;;
6852;SDS011;3465;42.144;24.722;2023-11-19T08:38:10;4.70;;;2.40;;
6852;SDS011;3465;42.144;24.722;2023-11-19T08:40:35;6.40;;;2.30;;
6852;SDS011;3465;42.144;24.722;2023-11-19T08:43:01;3.50;;;1.80;;
6852;SDS011;3465;42.144;24.722;2023-11-19T08:45:26;3.00;;;2.23;;
6852;SDS011;3465;42.144;24.722;2023-11-19T08:47:51;3.60;;;2.10;;
6852;SDS011;3465;42.144;24.722;2023-11-19T08:50:17;2.77;;;2.30;;
6852;SDS011;3465;42.144;24.722;2023-11-19T08:52:42;3.43;;;1.97;;
6852;SDS011;3465;42.144;24.722;2023-11-19T08:55:08;2.70;;;2.00;;
6852;SDS011;3465;42.144;24.722;2023-11-19T08:57:35;3.17;;;2.17;;
6852;SDS011;3465;42.144;24.722;2023-11-19T09:00:00;6.43;;;2.37;;
6852;SDS011;3465;42.144;24.722;2023-11-19T09:02:26;5.20;;;2.37;;
6852;SDS011;3465;42.144;24.722;2023-11-19T09:04:51;7.20;;;2.10;;
6852;SDS011;3465;42.144;24.722;2023-11-19T09:07:17;4.37;;;2.10;;
6852;SDS011;3465;42.144;24.722;2023-11-19T09:09:42;4.63;;;1.83;;
6852;SDS011;3465;42.144;24.722;2023-11-19T09:12:08;3.17;;;2.33;;
6852;SDS011;3465;42.144;24.722;2023-11-19T09:14:33;2.10;;;1.90;;
6852;SDS011;3465;42.144;24.722;2023-11-19T09:16:59;3.73;;;2.10;;
6852;SDS011;3465;42.144;24.722;2023-11-19T09:19:25;6.20;;;2.10;;
6852;SDS011;3465;42.144;24.722;2023-11-19T09:21:51;2.23;;;1.90;;
6852;SDS011;3465;42.144;24.722;2023-11-19T09:24:18;2.57;;;1.90;;
6852;SDS011;3465;42.144;24.722;2023-11-19T09:26:43;2.30;;;1.90;;
6852;SDS011;3465;42.144;24.722;2023-11-19T09:29:09;2.73;;;2.20;;
6852;SDS011;3465;42.144;24.722;2023-11-19T09:31:34;2.20;;;1.87;;
6852;SDS011;3465;42.144;24.722;2023-11-19T09:34:00;3.27;;;2.13;;
6852;SDS011;3465;42.144;24.722;2023-11-19T09:36:26;4.93;;;2.10;;
6852;SDS011;3465;42.144;24.722;2023-11-19T09:38:51;2.00;;;1.80;;
6852;SDS011;3465;42.144;24.722;2023-11-19T09:41:17;2.10;;;1.90;;
6852;SDS011;3465;42.144;24.722;2023-11-19T09:43:44;3.27;;;2.33;;
6852;SDS011;3465;42.144;24.722;2023-11-19T09:46:10;2.60;;;1.90;;
6852;SDS011;3465;42.144;24.722;2023-11-19T09:48:38;2.40;;;1.90;;
6852;SDS011;3465;42.144;24.722;2023-11-19T09:51:08;2.43;;;2.10;;
6852;SDS011;3465;42.144;24.722;2023-11-19T09:53:35;3.37;;;2.13;;
6852;SDS011;3465;42.144;24.722;2023-11-19T09:56:02;2.37;;;2.00;;
6852;SDS011;3465;42.144;24.722;2023-11-19T09:58:31;4.53;;;2.07;;
6852;SDS011;3465;42.144;24.722;2023-11-19T10:00:57;2.40;;;2.07;;
6852;SDS011;3465;42.144;24.722;2023-11-19T10:03:24;2.90;;;2.20;;
6852;SDS011;3465;42.144;24.722;2023-11-19T10:05:52;4.17;;;2.00;;
6852;SDS011;3465;42.144;24.722;2023-11-19T10:08:20;2.40;;;1.90;;
6852;SDS011;3465;42.144;24.722;2023-11-19T10:10:45;6.33;;;2.10;;
6852;SDS011;3465;42.144;24.722;2023-11-19T10:13:10;2.80;;;1.90;;
6852;SDS011;3465;42.144;24.722;2023-11-19T10:15:36;2.80;;;2.10;;
6852;SDS011;3465;42.144;24.722;2023-11-19T10:18:02;2.90;;;2.03;;
6852;SDS011;3465;42.144;24.722;2023-11-19T10:20:37;3.90;;;2.33;;
6852;SDS011;3465;42.144;24.722;2023-11-19T10:23:06;2.07;;;1.87;;
6852;SDS011;3465;42.144;24.722;2023-11-19T10:25:32;5.43;;;2.17;;
6852;SDS011;3465;42.144;24.722;2023-11-19T10:27:58;2.63;;;2.20;;
6852;SDS011;3465;42.144;24.722;2023-11-19T10:30:24;3.10;;;2.10;;
6852;SDS011;3465;42.144;24.722;2023-11-19T10:33:12;2.20;;;1.90;;
6852;SDS011;3465;42.144;24.722;2023-11-19T10:35:55;2.10;;;1.63;;
6852;SDS011;3465;42.144;24.722;2023-11-19T10:38:23;2.43;;;2.23;;
6852;SDS011;3465;42.144;24.722;2023-11-19T10:40:50;2.83;;;1.90;;
6852;SDS011;3465;42.144;24.722;2023-11-19T10:43:16;3.30;;;2.10;;
6852;SDS011;3465;42.144;24.722;2023-11-19T10:45:42;3.73;;;2.20;;
6852;SDS011;3465;42.144;24.722;2023-11-19T10:48:08;3.87;;;1.90;;
6852;SDS011;3465;42.144;24.722;2023-11-19T10:50:35;4.73;;;1.90;;
6852;SDS011;3465;42.144;24.722;2023-11-19T10:53:02;4.13;;;1.77;;
6852;SDS011;3465;42.144;24.722;2023-11-19T10:55:32;1.90;;;1.70;;
6852;SDS011;3465;42.144;24.722;2023-11-19T10:58:00;1.80;;;1.63;;
6852;SDS011;3465;42.144;24.722;2023-11-19T11:00:37;2.87;;;1.80;;
6852;SDS011;3465;42.144;24.722;2023-11-19T11:03:11;2.60;;;1.73;;
6852;SDS011;3465;42.144;24.722;2023-11-19T11:05:41;2.50;;;1.70;;
6852;SDS011;3465;42.144;24.722;2023-11-19T11:08:07;2.40;;;1.80;;
6852;SDS011;3465;42.144;24.722;2023-11-19T11:10:35;2.73;;;2.00;;
6852;SDS011;3465;42.144;24.722;2023-11-19T11:13:07;2.50;;;1.90;;
6852;SDS011;3465;42.144;24.722;2023-11-19T11:15:33;2.57;;;2.03;;
6852;SDS011;3465;42.144;24.722;2023-11-19T11:18:01;2.10;;;1.90;;
6852;SDS011;3465;42.144;24.722;2023-11-19T11:20:28;11.23;;;2.50;;
6852;SDS011;3465;42.144;24.722;2023-11-19T11:23:01;2.50;;;2.30;;
6852;SDS011;3465;42.144;24.722;2023-11-19T11:28:59;3.70;;;2.10;;
6852;SDS011;3465;42.144;24.722;2023-11-19T11:39:45;3.10;;;2.10;;
6852;SDS011;3465;42.144;24.722;2023-11-19T11:45:06;5.10;;;2.10;;
6852;SDS011;3465;42.144;24.722;2023-11-19T11:50:08;3.97;;;2.63;;
6852;SDS011;3465;42.144;24.722;2023-11-19T11:53:12;3.13;;;2.43;;
6852;SDS011;3465;42.144;24.722;2023-11-19T11:55:26;2.30;;;2.00;;
6852;SDS011;3465;42.144;24.722;2023-11-19T11:57:52;2.23;;;2.00;;
6852;SDS011;3465;42.144;24.722;2023-11-19T12:00:37;3.67;;;2.17;;
6852;SDS011;3465;42.144;24.722;2023-11-19T12:03:04;3.27;;;1.97;;
6852;SDS011;3465;42.144;24.722;2023-11-19T12:05:31;2.90;;;2.10;;
6852;SDS011;3465;42.144;24.722;2023-11-19T12:08:03;2.53;;;2.20;;
6852;SDS011;3465;42.144;24.722;2023-11-19T12:10:32;2.50;;;2.10;;
6852;SDS011;3465;42.144;24.722;2023-11-19T12:13:12;2.50;;;2.30;;
6852;SDS011;3465;42.144;24.722;2023-11-19T12:18:23;2.37;;;2.17;;
6852;SDS011;3465;42.144;24.722;2023-11-19T12:20:49;3.87;;;2.93;;
6852;SDS011;3465;42.144;24.722;2023-11-19T12:23:15;4.63;;;2.70;;
6852;SDS011;3465;42.144;24.722;2023-11-19T12:25:40;3.87;;;2.50;;
6852;SDS011;3465;42.144;24.722;2023-11-19T12:28:11;5.20;;;2.80;;
6852;SDS011;3465;42.144;24.722;2023-11-19T12:30:38;3.33;;;2.63;;
6852;SDS011;3465;42.144;24.722;2023-11-19T12:33:07;3.90;;;2.70;;
6852;SDS011;3465;42.144;24.722;2023-11-19T12:35:38;3.20;;;2.50;;
6852;SDS011;3465;42.144;24.722;2023-11-19T12:38:04;4.13;;;2.70;;
6852;SDS011;3465;42.144;24.722;2023-11-19T12:40:30;3.53;;;2.80;;
6852;SDS011;3465;42.144;24.722;2023-11-19T12:42:55;2.90;;;2.50;;
6852;SDS011;3465;42.144;24.722;2023-11-19T12:45:21;6.30;;;3.40;;
6852;SDS011;3465;42.144;24.722;2023-11-19T12:47:48;5.50;;;2.80;;
6852;SDS011;3465;42.144;24.722;2023-11-19T12:50:16;4.83;;;2.90;;
6852;SDS011;3465;42.144;24.722;2023-11-19T12:52:57;3.30;;;2.90;;
6852;SDS011;3465;42.144;24.722;2023-11-19T12:55:29;3.93;;;2.93;;
6852;SDS011;3465;42.144;24.722;2023-11-19T12:57:57;4.07;;;2.70;;
6852;SDS011;3465;42.144;24.722;2023-11-19T13:00:24;6.53;;;2.90;;
6852;SDS011;3465;42.144;24.722;2023-11-19T13:02:55;2.60;;;2.20;;
6852;SDS011;3465;42.144;24.722;2023-11-19T13:08:06;3.70;;;2.60;;
6852;SDS011;3465;42.144;24.722;2023-11-19T13:13:13;3.37;;;2.60;;
6852;SDS011;3465;42.144;24.722;2023-11-19T13:15:39;3.43;;;2.73;;
6852;SDS011;3465;42.144;24.722;2023-11-19T13:18:05;3.37;;;2.77;;
6852;SDS011;3465;42.144;24.722;2023-11-19T13:20:31;3.87;;;2.90;;
6852;SDS011;3465;42.144;24.722;2023-11-19T13:22:58;3.17;;;2.77;;
6852;SDS011;3465;42.144;24.722;2023-11-19T13:25:27;3.30;;;2.60;;
6852;SDS011;3465;42.144;24.722;2023-11-19T13:27:54;3.27;;;2.60;;
6852;SDS011;3465;42.144;24.722;2023-11-19T13:30:20;3.77;;;2.90;;
6852;SDS011;3465;42.144;24.722;2023-11-19T13:32:47;4.30;;;2.80;;
6852;SDS011;3465;42.144;24.722;2023-11-19T13:35:13;5.83;;;2.83;;
6852;SDS011;3465;42.144;24.722;2023-11-19T13:37:39;4.23;;;2.90;;
6852;SDS011;3465;42.144;24.722;2023-11-19T13:40:08;3.50;;;2.93;;
6852;SDS011;3465;42.144;24.722;2023-11-19T13:42:36;3.97;;;2.60;;
6852;SDS011;3465;42.144;24.722;2023-11-19T13:45:05;3.53;;;2.93;;
6852;SDS011;3465;42.144;24.722;2023-11-19T13:47:39;5.53;;;4.03;;
6852;SDS011;3465;42.144;24.722;2023-11-19T13:50:09;5.37;;;2.80;;
6852;SDS011;3465;42.144;24.722;2023-11-19T13:52:39;5.43;;;2.97;;
6852;SDS011;3465;42.144;24.722;2023-11-19T13:55:07;4.93;;;2.90;;
6852;SDS011;3465;42.144;24.722;2023-11-19T13:57:37;3.47;;;2.97;;
6852;SDS011;3465;42.144;24.722;2023-11-19T14:00:04;4.47;;;2.70;;
6852;SDS011;3465;42.144;24.722;2023-11-19T14:02:44;5.20;;;2.80;;
6852;SDS011;3465;42.144;24.722;2023-11-19T14:05:15;5.17;;;2.60;;
6852;SDS011;3465;42.144;24.722;2023-11-19T14:07:44;4.47;;;3.00;;
6852;SDS011;3465;42.144;24.722;2023-11-19T14:10:13;7.23;;;3.23;;
6852;SDS011;3465;42.144;24.722;2023-11-19T14:12:40;7.10;;;3.70;;
6852;SDS011;3465;42.144;24.722;2023-11-19T14:15:06;6.77;;;3.70;;
6852;SDS011;3465;42.144;24.722;2023-11-19T14:17:34;4.33;;;3.10;;
6852;SDS011;3465;42.144;24.722;2023-11-19T14:20:00;7.30;;;3.50;;
6852;SDS011;3465;42.144;24.722;2023-11-19T14:22:25;5.67;;;3.20;;
6852;SDS011;3465;42.144;24.722;2023-11-19T14:24:51;4.37;;;3.20;;
6852;SDS011;3465;42.144;24.722;2023-11-19T14:27:16;4.87;;;3.10;;
6852;SDS011;3465;42.144;24.722;2023-11-19T14:29:42;5.90;;;3.37;;
6852;SDS011;3465;42.144;24.722;2023-11-19T14:32:12;4.90;;;3.40;;
6852;SDS011;3465;42.144;24.722;2023-11-19T14:34:37;4.33;;;2.80;;
6852;SDS011;3465;42.144;24.722;2023-11-19T14:37:03;3.90;;;3.13;;
6852;SDS011;3465;42.144;24.722;2023-11-19T14:39:28;5.37;;;3.17;;
6852;SDS011;3465;42.144;24.722;2023-11-19T14:41:56;3.67;;;2.97;;
6852;SDS011;3465;42.144;24.722;2023-11-19T14:44:26;2.90;;;2.57;;
6852;SDS011;3465;42.144;24.722;2023-11-19T14:46:52;4.20;;;2.90;;
6852;SDS011;3465;42.144;24.722;2023-11-19T14:49:17;3.37;;;2.90;;
6852;SDS011;3465;42.144;24.722;2023-11-19T14:51:43;6.33;;;2.70;;
6852;SDS011;3465;42.144;24.722;2023-11-19T14:54:08;3.77;;;2.80;;
6852;SDS011;3465;42.144;24.722;2023-11-19T14:56:34;3.90;;;2.90;;
6852;SDS011;3465;42.144;24.722;2023-11-19T14:58:59;3.23;;;2.63;;
6852;SDS011;3465;42.144;24.722;2023-11-19T15:01:24;3.50;;;2.60;;
6852;SDS011;3465;42.144;24.722;2023-11-19T15:03:50;3.67;;;2.70;;
6852;SDS011;3465;42.144;24.722;2023-11-19T15:06:16;4.20;;;2.77;;
6852;SDS011;3465;42.144;24.722;2023-11-19T15:08:41;5.77;;;2.90;;
6852;SDS011;3465;42.144;24.722;2023-11-19T15:11:07;4.10;;;2.60;;
6852;SDS011;3465;42.144;24.722;2023-11-19T15:13:34;3.77;;;3.10;;
6852;SDS011;3465;42.144;24.722;2023-11-19T15:16:02;5.00;;;3.60;;
6852;SDS011;3465;42.144;24.722;2023-11-19T15:18:30;5.00;;;3.20;;
6852;SDS011;3465;42.144;24.722;2023-11-19T15:20:56;5.63;;;3.43;;
6852;SDS011;3465;42.144;24.722;2023-11-19T15:23:21;4.80;;;3.30;;
6852;SDS011;3465;42.144;24.722;2023-11-19T15:25:47;4.47;;;3.20;;